CheckWX is a tool to help pilots better visualize weather data.  It is not intended as a substitute for an official pre-flight weather briefing.

05:22:24 UTC

UASS TAF
Semipalatinsk Airport
Semey, Kazakhstan
TAF UASS 200200Z 2003/2012 18010G15MPS 9999 SCT030 BKN100 TEMPO 2003/2009 15015G20MPS

Feb-20@
03:00 UTC

Feb-20 @ 03:00 UTC

Feb-20@
12:00 UTC

Feb-20 @ 12:00 UTC

TAF UASS 200200Z 2003/2012 18010G15MPS 9999 SCT030 BKN100
Wind
  • 180° at 19 KTS
  • {Gusting to 29 KTS
Visibility
10,000+ meters
Cloud Levels
  • Scattered at 3,000' AGL
  • Broken at 10,000' AGL

Feb-20@
03:00 UTC

Feb-20 @ 03:00 UTC

Feb-20@
09:00 UTC

Feb-20 @ 09:00 UTC

TEMPO 2003/2009 15015G20MPS

Temporary

TemporaryChanges expected for less than half the time period

Wind
  • 150° at 29 KTS
  • {Gusting to 39 KTS